createdAt,value
2022-09-10T00:01:39.542Z,536.67
2022-09-10T00:04:14.764Z,528.45
2022-09-10T00:06:44.243Z,528.65
2022-09-10T00:09:13.722Z,527.33
2022-09-10T00:11:42.524Z,519.97
2022-09-10T00:14:17.188Z,523.22
2022-09-10T00:16:45.190Z,525.50
2022-09-10T00:19:14.904Z,523.15
2022-09-10T00:21:44.470Z,575.10
2022-09-10T00:24:12.733Z,511.17
2022-09-10T00:26:40.731Z,529.45
2022-09-10T00:29:12.137Z,519.60
2022-09-10T00:31:40.201Z,508.77
2022-09-10T00:34:09.149Z,511.35
2022-09-10T00:36:40.397Z,516.08
2022-09-10T00:39:15.914Z,512.42
2022-09-10T00:41:46.626Z,506.33
2022-09-10T00:44:43.665Z,513.67
2022-09-10T00:47:28.846Z,509.30
2022-09-10T00:50:25.675Z,511.70
2022-09-10T00:52:57.606Z,505.67
2022-09-10T00:55:25.726Z,502.10
2022-09-10T00:57:57.776Z,506.77
2022-09-10T01:00:25.601Z,493.25
2022-09-10T01:02:55.001Z,504.45
2022-09-10T01:05:25.325Z,507.98
2022-09-10T01:07:53.257Z,502.25
2022-09-10T01:10:28.588Z,497.55
2022-09-10T01:13:16.838Z,496.13
2022-09-10T01:16:00.405Z,500.13
2022-09-10T01:19:18.685Z,496.58
2022-09-10T01:21:59.367Z,494.05
2022-09-10T01:24:46.928Z,510.27
2022-09-10T01:27:35.727Z,497.27
2022-09-10T01:30:20.733Z,492.15
2022-09-10T01:33:09.319Z,496.88
2022-09-10T01:35:52.101Z,489.05
2022-09-10T01:38:36.114Z,492.10
2022-09-10T01:41:06.267Z,478.33
2022-09-10T01:43:39.173Z,499.75
2022-09-10T01:46:28.342Z,502.42
2022-09-10T01:49:29.984Z,501.33
2022-09-10T01:53:09.959Z,487.50
2022-09-10T01:56:26.371Z,478.15
2022-09-10T01:59:04.680Z,489.70
2022-09-10T02:01:53.189Z,502.52
2022-09-10T02:04:22.551Z,510.38
2022-09-10T02:06:52.051Z,497.40
2022-09-10T02:09:20.130Z,502.10
2022-09-10T02:11:54.683Z,500.73
2022-09-10T02:14:43.173Z,494.63
2022-09-10T02:17:25.438Z,503.98
2022-09-10T02:19:55.750Z,496.45
2022-09-10T02:22:25.666Z,502.90
2022-09-10T02:24:53.425Z,505.08
2022-09-10T02:27:21.266Z,506.52
2022-09-10T02:29:49.709Z,504.15
2022-09-10T02:32:17.482Z,505.80
2022-09-10T02:34:45.366Z,513.22
2022-09-10T02:37:13.162Z,500.48
2022-09-10T02:39:42.112Z,504.00
2022-09-10T02:42:10.035Z,507.05
2022-09-10T02:44:37.788Z,498.92
2022-09-10T02:47:06.375Z,498.35
2022-09-10T02:49:34.763Z,506.88
2022-09-10T02:52:03.541Z,499.88
2022-09-10T02:54:31.543Z,507.55
2022-09-10T02:57:00.203Z,496.23
2022-09-10T02:59:28.742Z,504.42
2022-09-10T03:01:57.632Z,507.77
2022-09-10T03:04:25.702Z,517.58
2022-09-10T03:06:53.512Z,514.40
2022-09-10T03:09:22.799Z,502.88
2022-09-10T03:11:51.269Z,495.15
2022-09-10T03:14:23.177Z,506.58
2022-09-10T03:16:50.953Z,495.25
2022-09-10T03:19:18.802Z,501.55
2022-09-10T03:21:47.548Z,510.63
2022-09-10T03:24:15.707Z,506.27
2022-09-10T03:26:46.568Z,499.77
2022-09-10T03:29:16.603Z,491.90
2022-09-10T03:31:46.449Z,511.65
2022-09-10T03:34:17.092Z,516.45
2022-09-10T03:36:49.557Z,509.50
2022-09-10T03:39:18.841Z,502.38
2022-09-10T03:41:47.914Z,524.47
2022-09-10T03:44:17.177Z,500.27
2022-09-10T03:46:48.033Z,505.20
2022-09-10T03:49:19.001Z,500.33
2022-09-10T03:51:48.242Z,501.50
2022-09-10T03:54:16.871Z,508.15
2022-09-10T03:56:45.485Z,499.13
2022-09-10T03:59:13.691Z,512.85
2022-09-10T04:01:42.773Z,506.67
2022-09-10T04:04:11.208Z,506.50
2022-09-10T04:06:40.251Z,503.33
2022-09-10T04:09:08.095Z,499.35
2022-09-10T04:11:36.354Z,510.95
2022-09-10T04:14:05.225Z,516.05
2022-09-10T04:16:36.154Z,505.92
2022-09-10T04:19:04.509Z,502.55
2022-09-10T04:21:32.314Z,501.52
2022-09-10T04:24:00.721Z,497.20
2022-09-10T04:26:28.852Z,505.23
2022-09-10T04:28:57.010Z,507.67
2022-09-10T04:31:24.956Z,499.35
2022-09-10T04:33:56.750Z,496.30
2022-09-10T04:36:27.384Z,501.27
2022-09-10T04:38:55.220Z,504.20
2022-09-10T04:41:23.216Z,497.52
2022-09-10T04:43:51.478Z,500.38
2022-09-10T04:46:20.084Z,507.50
2022-09-10T04:48:52.003Z,502.80
2022-09-10T04:51:23.890Z,501.67
2022-09-10T04:53:54.494Z,490.25
2022-09-10T04:56:26.661Z,498.30
2022-09-10T04:58:54.738Z,492.42
2022-09-10T05:01:23.340Z,495.42
2022-09-10T05:03:53.603Z,487.48
2022-09-10T05:06:21.402Z,495.42
2022-09-10T05:08:50.753Z,496.48
2022-09-10T05:11:19.777Z,502.15
2022-09-10T05:13:48.300Z,501.48
2022-09-10T05:16:21.265Z,495.00
2022-09-10T05:18:49.345Z,492.13
2022-09-10T05:21:18.638Z,480.17
2022-09-10T05:23:47.387Z,490.58
2022-09-10T05:26:15.207Z,491.50
2022-09-10T05:28:43.159Z,501.75
2022-09-10T05:31:15.120Z,495.17
2022-09-10T05:33:44.709Z,491.38
2022-09-10T05:36:14.796Z,493.80
2022-09-10T05:38:45.770Z,492.73
2022-09-10T05:41:14.266Z,494.25
2022-09-10T05:43:49.062Z,490.13
2022-09-10T05:46:17.157Z,493.25
2022-09-10T05:48:49.124Z,480.77
2022-09-10T05:51:18.822Z,494.75
2022-09-10T05:53:48.591Z,481.67
2022-09-10T05:56:17.466Z,489.25
2022-09-10T05:58:46.015Z,498.85
2022-09-10T06:01:15.881Z,489.48
2022-09-10T06:03:44.917Z,496.13
2022-09-10T06:06:12.855Z,500.38
2022-09-10T06:08:50.956Z,497.70
2022-09-10T06:11:26.094Z,492.77
2022-09-10T06:13:53.999Z,506.75
2022-09-10T06:16:22.166Z,497.50
2022-09-10T06:18:50.648Z,498.88
2022-09-10T06:21:28.138Z,494.02
2022-09-10T06:23:57.903Z,505.50
2022-09-10T06:26:27.556Z,503.95
2022-09-10T06:28:59.095Z,503.58
2022-09-10T06:31:27.699Z,505.55
2022-09-10T06:33:56.636Z,497.58
2022-09-10T06:36:28.854Z,498.40
2022-09-10T06:38:58.054Z,500.25
2022-09-10T06:41:27.053Z,509.13
2022-09-10T06:44:15.029Z,515.78
2022-09-10T06:49:37.311Z,502.92
2022-09-10T06:52:06.344Z,517.20
2022-09-10T06:54:35.572Z,518.28
2022-09-10T06:57:18.026Z,520.42
2022-09-10T06:59:46.010Z,527.33
2022-09-10T07:02:15.318Z,528.30
2022-09-10T07:04:43.492Z,534.25
2022-09-10T07:07:11.388Z,531.03
2022-09-10T07:09:39.369Z,533.65
2022-09-10T07:12:09.573Z,532.72
2022-09-10T07:14:41.042Z,531.00
2022-09-10T07:17:11.565Z,522.50
2022-09-10T07:19:40.093Z,533.53
2022-09-10T07:22:19.098Z,524.78
2022-09-10T07:24:50.317Z,532.53
2022-09-10T07:27:29.581Z,525.95
2022-09-10T07:29:58.898Z,541.35
2022-09-10T07:32:27.078Z,532.00
2022-09-10T07:35:07.704Z,543.20
2022-09-10T07:37:36.264Z,544.85
2022-09-10T07:40:04.737Z,542.22
2022-09-10T07:42:33.260Z,538.13
2022-09-10T07:45:01.276Z,544.88
2022-09-10T07:47:29.342Z,547.33
2022-09-10T07:49:58.014Z,550.80
2022-09-10T07:52:26.117Z,559.60
2022-09-10T07:54:56.174Z,564.10
2022-09-10T07:57:24.090Z,555.53
2022-09-10T07:59:53.807Z,569.03
2022-09-10T08:02:25.822Z,560.28
2022-09-10T08:04:59.366Z,563.25
2022-09-10T08:07:28.541Z,567.45
2022-09-10T08:09:57.287Z,569.47
2022-09-10T08:12:25.505Z,580.72
2022-09-10T08:14:54.791Z,576.58
2022-09-10T08:17:22.705Z,578.83
2022-09-10T08:19:53.934Z,589.60
2022-09-10T08:22:22.597Z,588.13
2022-09-10T08:24:56.721Z,595.45
2022-09-10T08:27:29.769Z,595.80
2022-09-10T08:29:58.122Z,607.25
2022-09-10T08:32:28.612Z,610.42
2022-09-10T08:34:57.816Z,619.15
2022-09-10T08:37:27.734Z,617.83
2022-09-10T08:39:55.733Z,621.20
2022-09-10T08:42:43.120Z,636.08
2022-09-10T08:45:29.054Z,612.65
2022-09-10T08:48:16.657Z,619.55
2022-09-10T08:51:13.650Z,625.25
2022-09-10T08:54:17.859Z,615.20
2022-09-10T08:56:48.687Z,615.75
2022-09-10T08:59:44.619Z,637.63
2022-09-10T09:02:47.626Z,626.35
2022-09-10T09:05:23.777Z,625.13
2022-09-10T09:07:58.625Z,642.47
2022-09-10T09:11:10.519Z,634.10
2022-09-10T09:14:11.389Z,642.78
2022-09-10T09:17:06.253Z,641.88
2022-09-10T09:20:05.841Z,659.22
2022-09-10T09:22:52.980Z,650.45
2022-09-10T09:25:54.151Z,652.92
2022-09-10T09:28:39.797Z,648.03
2022-09-10T09:31:25.289Z,652.92
2022-09-10T09:34:13.629Z,665.55
2022-09-10T09:36:48.522Z,666.60
2022-09-10T09:39:37.891Z,667.10
2022-09-10T09:42:37.980Z,665.90
2022-09-10T09:45:21.113Z,666.53
2022-09-10T09:47:54.584Z,670.08
2022-09-10T09:50:23.112Z,678.45
2022-09-10T09:52:56.583Z,678.75
2022-09-10T09:55:40.265Z,687.25
2022-09-10T09:58:28.899Z,687.72
2022-09-10T10:01:05.890Z,691.55
2022-09-10T10:03:52.345Z,700.08
2022-09-10T10:06:27.811Z,718.85
2022-09-10T10:08:58.175Z,693.15
2022-09-10T10:11:55.517Z,694.30
2022-09-10T10:14:39.275Z,688.10
2022-09-10T10:17:30.336Z,691.90
2022-09-10T10:20:09.229Z,677.03
2022-09-10T10:22:40.532Z,688.75
2022-09-10T10:25:38.377Z,691.05
2022-09-10T10:28:24.474Z,687.92
2022-09-10T10:31:00.891Z,694.55
2022-09-10T10:33:33.229Z,698.25
2022-09-10T10:36:20.822Z,702.00
2022-09-10T10:39:04.618Z,691.85
2022-09-10T10:42:08.578Z,697.95
2022-09-10T10:45:31.203Z,691.88
2022-09-10T10:48:14.270Z,690.85
2022-09-10T10:51:01.934Z,691.67
2022-09-10T10:53:59.537Z,698.30
2022-09-10T10:56:40.596Z,682.10
2022-09-10T10:59:39.668Z,685.10
2022-09-10T11:02:18.272Z,685.30
2022-09-10T11:04:52.082Z,687.25
2022-09-10T11:07:29.487Z,688.42
2022-09-10T11:10:27.194Z,691.35
2022-09-10T11:13:36.735Z,679.05
2022-09-10T11:16:16.826Z,681.47
2022-09-10T11:19:13.951Z,694.30
2022-09-10T11:21:50.514Z,681.33
2022-09-10T11:24:34.198Z,684.72
2022-09-10T11:27:18.938Z,676.55
2022-09-10T11:29:57.652Z,676.03
2022-09-10T11:32:42.809Z,677.40
2022-09-10T11:36:12.651Z,675.38
2022-09-10T11:38:45.252Z,662.97
2022-09-10T11:41:23.992Z,674.20
2022-09-10T11:44:21.349Z,668.88
2022-09-10T11:47:09.235Z,664.78
2022-09-10T11:49:55.724Z,670.88
2022-09-10T11:52:25.643Z,665.05
2022-09-10T11:54:54.253Z,674.58
2022-09-10T11:57:52.193Z,663.67
2022-09-10T12:00:20.983Z,657.60
2022-09-10T12:03:20.405Z,660.53
2022-09-10T12:06:23.298Z,660.38
2022-09-10T12:09:16.352Z,666.85
2022-09-10T12:12:13.973Z,664.50
2022-09-10T12:14:42.226Z,658.28
2022-09-10T12:17:31.747Z,672.05
2022-09-10T12:20:02.272Z,663.80
2022-09-10T12:22:37.989Z,672.28
2022-09-10T12:25:29.275Z,672.75
2022-09-10T12:28:03.127Z,669.33
2022-09-10T12:34:26.343Z,665.63
2022-09-10T12:37:00.256Z,685.63
2022-09-10T12:39:28.914Z,701.88
2022-09-10T12:42:22.629Z,696.05
2022-09-10T12:44:50.486Z,684.17
2022-09-10T12:47:18.235Z,695.28
2022-09-10T12:49:53.450Z,699.95
2022-09-10T12:52:51.024Z,709.08
2022-09-10T12:56:32.953Z,701.33
2022-09-10T12:59:27.793Z,707.05
2022-09-10T13:01:56.300Z,707.70
2022-09-10T13:04:35.722Z,716.00
2022-09-10T13:07:21.339Z,702.60
2022-09-10T13:10:21.944Z,711.08
2022-09-10T13:12:58.550Z,727.55
2022-09-10T13:15:35.678Z,731.08
2022-09-10T13:18:09.320Z,716.70
2022-09-10T13:20:37.474Z,731.80
2022-09-10T13:23:11.910Z,741.15
2022-09-10T13:25:43.487Z,734.58
2022-09-10T13:28:35.556Z,743.00
2022-09-10T13:31:14.016Z,730.33
2022-09-10T13:33:51.949Z,735.05
2022-09-10T13:36:25.690Z,725.00
2022-09-10T13:39:31.698Z,737.00
2022-09-10T13:42:47.223Z,735.08
2022-09-10T13:45:24.517Z,731.25
2022-09-10T13:48:17.606Z,746.42
2022-09-10T13:51:08.540Z,741.13
2022-09-10T13:53:44.345Z,742.88
2022-09-10T13:56:33.495Z,753.22
2022-09-10T13:59:03.504Z,751.35
2022-09-10T14:01:54.512Z,765.35
2022-09-10T14:04:35.549Z,763.13
2022-09-10T14:07:26.519Z,767.17
2022-09-10T14:10:02.023Z,762.58
2022-09-10T14:12:35.456Z,767.25
2022-09-10T14:15:06.691Z,766.40
2022-09-10T14:17:43.057Z,771.13
2022-09-10T14:20:32.342Z,773.42
2022-09-10T14:23:14.926Z,782.92
2022-09-10T14:25:45.055Z,773.10
2022-09-10T14:28:15.885Z,778.67
2022-09-10T14:30:48.827Z,787.97
2022-09-10T14:33:36.491Z,786.55
2022-09-10T14:36:28.077Z,782.47
2022-09-10T14:39:17.019Z,789.95
2022-09-10T14:41:45.724Z,781.67
2022-09-10T14:44:27.500Z,783.67
2022-09-10T14:47:21.315Z,786.03
2022-09-10T14:49:49.295Z,780.70
2022-09-10T14:52:17.181Z,788.55
2022-09-10T14:54:46.043Z,792.78
2022-09-10T14:57:16.320Z,807.38
2022-09-10T14:59:46.453Z,798.92
2022-09-10T15:02:16.422Z,803.58
2022-09-10T15:04:44.289Z,798.22
2022-09-10T15:07:13.668Z,799.05
2022-09-10T15:09:41.550Z,797.45
2022-09-10T15:12:12.098Z,802.13
2022-09-10T15:14:40.086Z,801.13
2022-09-10T15:17:14.130Z,808.05
2022-09-10T15:19:42.072Z,796.65
2022-09-10T15:22:24.719Z,810.00
2022-09-10T15:25:10.768Z,802.05
2022-09-10T15:27:39.117Z,794.95
2022-09-10T15:30:07.622Z,803.90
2022-09-10T15:32:35.466Z,787.10
2022-09-10T15:35:04.445Z,791.97
2022-09-10T15:37:32.229Z,793.47
2022-09-10T15:40:00.100Z,794.53
2022-09-10T15:42:27.966Z,790.70
2022-09-10T15:44:55.701Z,787.00
2022-09-10T15:47:24.162Z,795.38
2022-09-10T15:49:52.895Z,791.78
2022-09-10T15:52:21.117Z,795.13
2022-09-10T15:54:48.943Z,789.42
2022-09-10T15:57:16.694Z,786.72
2022-09-10T15:59:44.441Z,793.70
2022-09-10T16:02:15.286Z,787.22
2022-09-10T16:04:43.305Z,777.92
2022-09-10T16:07:11.680Z,781.20
2022-09-10T16:09:40.069Z,785.97
2022-09-10T16:12:08.054Z,798.15
2022-09-10T16:14:35.873Z,794.40
2022-09-10T16:17:10.315Z,791.70
2022-09-10T16:19:38.568Z,790.00
2022-09-10T16:22:06.267Z,787.75
2022-09-10T16:24:34.321Z,785.38
2022-09-10T16:27:02.369Z,780.58
2022-09-10T16:29:30.258Z,788.42
2022-09-10T16:31:58.073Z,781.55
2022-09-10T16:34:25.913Z,785.78
2022-09-10T16:36:53.661Z,788.05
2022-09-10T16:39:22.134Z,788.53
2022-09-10T16:41:51.033Z,787.78
2022-09-10T16:44:19.460Z,788.92
2022-09-10T16:46:47.682Z,796.85
2022-09-10T16:49:18.474Z,797.78
2022-09-10T16:51:49.161Z,798.67
2022-09-10T16:54:21.009Z,802.17
2022-09-10T16:56:50.426Z,801.78
2022-09-10T16:59:23.663Z,805.22
2022-09-10T17:01:52.684Z,802.63
2022-09-10T17:04:28.964Z,807.20
2022-09-10T17:06:57.671Z,798.78
2022-09-10T17:09:25.961Z,796.20
2022-09-10T17:11:54.120Z,788.50
2022-09-10T17:14:22.017Z,780.95
2022-09-10T17:16:50.274Z,786.20
2022-09-10T17:19:23.772Z,786.88
2022-09-10T17:21:55.624Z,782.63
2022-09-10T17:24:26.933Z,784.63
2022-09-10T17:26:55.419Z,782.05
2022-09-10T17:29:25.295Z,772.25
2022-09-10T17:31:55.307Z,774.05
2022-09-10T17:34:24.702Z,771.05
2022-09-10T17:36:53.308Z,769.65
2022-09-10T17:39:21.402Z,768.15
2022-09-10T17:41:49.209Z,764.60
2022-09-10T17:44:17.624Z,753.35
2022-09-10T17:46:46.366Z,751.88
2022-09-10T17:49:15.510Z,754.92
2022-09-10T17:51:44.010Z,748.50
2022-09-10T17:54:13.427Z,744.88
2022-09-10T17:56:41.971Z,746.65
2022-09-10T17:59:13.025Z,747.33
2022-09-10T18:01:41.698Z,749.95
2022-09-10T18:04:15.708Z,737.47
2022-09-10T18:06:45.994Z,735.50
2022-09-10T18:09:16.966Z,721.33
2022-09-10T18:11:45.194Z,729.50
2022-09-10T18:14:17.897Z,712.33
2022-09-10T18:16:46.810Z,719.65
2022-09-10T18:19:17.187Z,719.45
2022-09-10T18:21:47.207Z,713.25
2022-09-10T18:24:18.085Z,713.55
2022-09-10T18:26:49.309Z,698.08
2022-09-10T18:29:24.028Z,702.88
2022-09-10T18:31:58.060Z,708.03
2022-09-10T18:34:29.384Z,697.65
2022-09-10T18:37:00.912Z,694.35
2022-09-10T18:39:31.852Z,686.05
2022-09-10T18:42:03.486Z,697.80
2022-09-10T18:44:34.158Z,691.35
2022-09-10T18:47:02.524Z,687.72
2022-09-10T18:49:30.608Z,689.47
2022-09-10T18:51:58.754Z,691.90
2022-09-10T18:54:31.115Z,683.63
2022-09-10T18:56:59.002Z,677.30
2022-09-10T18:59:27.328Z,689.35
2022-09-10T19:01:56.115Z,685.30
2022-09-10T19:04:28.169Z,673.70
2022-09-10T19:06:58.331Z,678.47
2022-09-10T19:09:29.798Z,669.38
2022-09-10T19:12:03.295Z,661.20
2022-09-10T19:14:34.634Z,666.08
2022-09-10T19:17:03.737Z,674.50
2022-09-10T19:19:35.217Z,662.97
2022-09-10T19:22:10.748Z,677.63
2022-09-10T19:24:55.329Z,664.55
2022-09-10T19:27:24.867Z,659.92
2022-09-10T19:29:53.745Z,657.20
2022-09-10T19:32:21.654Z,656.45
2022-09-10T19:34:50.968Z,669.13
2022-09-10T19:37:19.657Z,657.10
2022-09-10T19:39:47.674Z,650.13
2022-09-10T19:42:16.429Z,651.42
2022-09-10T19:44:44.226Z,648.33
2022-09-10T19:47:12.031Z,645.85
2022-09-10T19:49:39.883Z,653.85
2022-09-10T19:52:07.765Z,635.22
2022-09-10T19:54:35.547Z,653.08
2022-09-10T19:57:03.442Z,642.63
2022-09-10T19:59:31.502Z,643.75
2022-09-10T20:01:59.413Z,642.50
2022-09-10T20:04:27.702Z,645.05
2022-09-10T20:06:55.539Z,643.88
2022-09-10T20:09:23.379Z,637.85
2022-09-10T20:11:51.208Z,629.25
2022-09-10T20:14:20.187Z,634.80
2022-09-10T20:16:48.120Z,633.90
2022-09-10T20:19:18.442Z,639.83
2022-09-10T20:21:47.677Z,645.65
2022-09-10T20:24:16.585Z,636.75
2022-09-10T20:26:46.377Z,632.75
2022-09-10T20:29:19.391Z,643.83
2022-09-10T20:31:48.505Z,643.45
2022-09-10T20:34:20.258Z,638.80
2022-09-10T20:36:53.126Z,642.70
2022-09-10T20:39:25.387Z,629.10
2022-09-10T20:41:53.620Z,625.33
2022-09-10T20:44:21.490Z,635.03
2022-09-10T20:46:49.377Z,644.15
2022-09-10T20:49:17.375Z,636.55
2022-09-10T20:51:45.659Z,613.92
2022-09-10T20:54:17.790Z,629.35
2022-09-10T20:56:46.186Z,620.08
2022-09-10T20:59:16.331Z,608.28
2022-09-10T21:01:45.859Z,612.92
2022-09-10T21:04:14.152Z,613.50
2022-09-10T21:06:42.152Z,609.10
2022-09-10T21:09:10.073Z,617.58
2022-09-10T21:11:38.452Z,598.45
2022-09-10T21:14:07.982Z,611.72
2022-09-10T21:16:42.302Z,600.60
2022-09-10T21:19:14.874Z,597.38
2022-09-10T21:21:45.656Z,596.45
2022-09-10T21:24:17.440Z,596.72
2022-09-10T21:26:45.341Z,596.65
2022-09-10T21:29:17.129Z,592.92
2022-09-10T21:31:45.635Z,592.58
2022-09-10T21:34:14.472Z,591.00
2022-09-10T21:36:43.724Z,601.15
2022-09-10T21:39:15.400Z,598.70
2022-09-10T21:41:49.113Z,587.95
2022-09-10T21:44:21.037Z,588.83
2022-09-10T21:46:49.931Z,589.65
2022-09-10T21:49:18.458Z,592.45
2022-09-10T21:51:46.706Z,592.38
2022-09-10T21:54:19.003Z,590.15
2022-09-10T21:56:48.849Z,600.25
2022-09-10T21:59:16.930Z,582.17
2022-09-10T22:01:46.873Z,585.10
2022-09-10T22:04:18.947Z,590.38
2022-09-10T22:06:50.152Z,580.78
2022-09-10T22:09:19.809Z,588.22
2022-09-10T22:11:51.312Z,589.40
2022-09-10T22:14:22.957Z,586.30
2022-09-10T22:16:52.008Z,586.38
2022-09-10T22:19:23.689Z,590.67
2022-09-10T22:21:54.217Z,603.03
2022-09-10T22:24:22.223Z,585.55
2022-09-10T22:26:50.547Z,592.15
2022-09-10T22:29:20.384Z,587.22
2022-09-10T22:31:49.524Z,589.88
2022-09-10T22:34:18.939Z,596.13
2022-09-10T22:36:48.438Z,594.53
2022-09-10T22:39:19.326Z,591.22
2022-09-10T22:41:50.539Z,595.83
2022-09-10T22:44:19.943Z,595.55
2022-09-10T22:46:48.256Z,587.60
2022-09-10T22:49:17.006Z,585.05
2022-09-10T22:51:45.071Z,603.30
2022-09-10T22:54:13.079Z,594.63
2022-09-10T22:56:42.088Z,588.88
2022-09-10T22:59:13.972Z,586.67
2022-09-10T23:01:43.551Z,584.92
2022-09-10T23:04:11.867Z,596.90
2022-09-10T23:06:40.258Z,591.35
2022-09-10T23:09:14.669Z,601.38
2022-09-10T23:11:44.521Z,588.10
2022-09-10T23:14:19.971Z,595.28
2022-09-10T23:16:50.182Z,587.05
2022-09-10T23:19:23.693Z,581.60
2022-09-10T23:21:54.547Z,581.25
2022-09-10T23:24:24.744Z,588.10
2022-09-10T23:26:53.852Z,587.60
2022-09-10T23:29:23.175Z,588.28
2022-09-10T23:31:53.457Z,587.47
2022-09-10T23:34:22.288Z,588.85
2022-09-10T23:36:51.220Z,585.15
2022-09-10T23:39:23.209Z,583.17
2022-09-10T23:41:56.856Z,582.95
2022-09-10T23:44:26.001Z,572.25
2022-09-10T23:46:55.509Z,578.28
2022-09-10T23:49:26.452Z,577.35
2022-09-10T23:51:54.369Z,582.95
2022-09-10T23:54:22.113Z,582.72
2022-09-10T23:56:49.853Z,586.92
2022-09-10T23:59:17.842Z,583.22
